Time;durP1;ratioP1;P1;durP2;ratioP2;P2;SDS_P1;SDS_P2;PMS_P1;PMS_P2;Temp;Humidity;BMP_temperature;BMP_pressure;BME280_temperature;BME280_humidity;BME280_pressure;Samples;Min_cycle;Max_cycle;Signal;HPM_P1;HPM_P2
2023/08/01 00:02:22;;;;;;;;;;;16.60;94.20;;;;;;5093066;28;19962;-77
2023/08/01 00:04:48;;;;;;;;;;;16.60;93.90;;;;;;5092909;28;19916;-77
2023/08/01 00:07:13;;;;;;;;;;;16.50;94.00;;;;;;5076152;28;19920;-77
2023/08/01 00:09:39;;;;;;;;;;;16.50;93.90;;;;;;5059774;28;20010;-77
2023/08/01 00:12:05;;;;;;;;;;;16.50;93.70;;;;;;5076481;28;19916;-77
2023/08/01 00:14:30;;;;;;;;;;;16.50;93.70;;;;;;5092368;28;20275;-77
2023/08/01 00:16:56;;;;;;;;;;;16.50;93.70;;;;;;5092663;28;20439;-77
2023/08/01 00:19:21;;;;;;;;;;;16.50;93.60;;;;;;5076026;28;20372;-77
2023/08/01 00:21:47;;;;;;;;;;;16.40;93.60;;;;;;5075826;28;19922;-77
2023/08/01 00:24:13;;;;;;;;;;;16.40;93.20;;;;;;5092946;28;19916;-77
2023/08/01 00:26:38;;;;;;;;;;;16.40;93.00;;;;;;5076002;28;20559;-77
2023/08/01 00:29:04;;;;;;;;;;;16.30;93.00;;;;;;5075752;28;19923;-77
2023/08/01 00:31:29;;;;;;;;;;;16.20;92.90;;;;;;5059091;28;19971;-77
2023/08/01 00:33:55;;;;;;;;;;;16.20;92.80;;;;;;5075863;28;19922;-77
2023/08/01 00:36:21;;;;;;;;;;;16.20;92.70;;;;;;5075670;28;19927;-77
2023/08/01 00:38:47;;;;;;;;;;;16.10;92.60;;;;;;5075820;28;19916;-77
2023/08/01 00:41:12;;;;;;;;;;;16.10;92.40;;;;;;5075855;28;19937;-77
2023/08/01 00:43:38;;;;;;;;;;;16.00;92.50;;;;;;5092749;28;20002;-77
2023/08/01 00:46:05;;;;;;;;;;;16.00;92.50;;;;;;5059293;28;19916;-77
2023/08/01 00:48:31;;;;;;;;;;;15.90;92.60;;;;;;5092455;28;19994;-77
2023/08/01 00:51:01;;;;;;;;;;;15.80;92.70;;;;;;5075482;28;20015;-77
2023/08/01 00:53:28;;;;;;;;;;;15.80;92.70;;;;;;5092172;28;19920;-77
2023/08/01 00:55:54;;;;;;;;;;;15.80;92.80;;;;;;5075420;28;19927;-77
2023/08/01 00:58:20;;;;;;;;;;;15.70;92.90;;;;;;5075818;28;20284;-77
2023/08/01 01:00:46;;;;;;;;;;;15.70;92.90;;;;;;5092588;28;19920;-77
2023/08/01 01:03:12;;;;;;;;;;;15.70;92.90;;;;;;5075313;28;20253;-77
2023/08/01 01:05:40;;;;;;;;;;;15.70;92.90;;;;;;5092571;28;20356;-77
2023/08/01 01:08:06;;;;;;;;;;;15.60;92.90;;;;;;5075623;28;20372;-77
2023/08/01 01:10:31;;;;;;;;;;;15.60;92.90;;;;;;5092322;28;19923;-77
2023/08/01 01:12:57;;;;;;;;;;;15.70;93.00;;;;;;5092334;28;20014;-77
2023/08/01 01:15:22;;;;;;;;;;;15.60;92.90;;;;;;5075243;28;19923;-77
2023/08/01 01:17:48;;;;;;;;;;;15.60;93.00;;;;;;5092272;28;19967;-77
2023/08/01 01:20:14;;;;;;;;;;;15.60;93.00;;;;;;5075249;28;19916;-77
2023/08/01 01:22:40;;;;;;;;;;;15.50;92.90;;;;;;5075295;28;19922;-77
2023/08/01 01:25:06;;;;;;;;;;;15.50;92.90;;;;;;5076562;28;20006;-77
2023/08/01 01:27:33;;;;;;;;;;;15.50;93.00;;;;;;5096534;28;19974;-77
2023/08/01 01:29:59;;;;;;;;;;;15.40;93.10;;;;;;5079389;28;20310;-77
2023/08/01 01:32:25;;;;;;;;;;;15.40;93.10;;;;;;5095904;28;19923;-77
2023/08/01 01:34:50;;;;;;;;;;;15.40;93.20;;;;;;5095729;28;19920;-77
2023/08/01 01:37:16;;;;;;;;;;;15.40;93.10;;;;;;5078907;28;19920;-77
2023/08/01 01:39:41;;;;;;;;;;;15.30;93.20;;;;;;5062367;28;19969;-77
2023/08/01 01:42:07;;;;;;;;;;;15.30;93.20;;;;;;5078720;28;19916;-77
2023/08/01 01:44:33;;;;;;;;;;;15.30;93.30;;;;;;5095824;28;20006;-77
2023/08/01 01:46:58;;;;;;;;;;;15.30;93.30;;;;;;5096043;28;19916;-77
2023/08/01 01:49:26;;;;;;;;;;;15.30;93.30;;;;;;5078599;28;19923;-77
2023/08/01 01:51:51;;;;;;;;;;;15.30;93.30;;;;;;5095652;28;19916;-77
2023/08/01 01:54:17;;;;;;;;;;;15.30;93.30;;;;;;5095376;28;19916;-77
2023/08/01 01:56:42;;;;;;;;;;;15.20;93.40;;;;;;5078477;28;19927;-77
2023/08/01 01:59:08;;;;;;;;;;;15.20;93.40;;;;;;5095514;28;20006;-77
2023/08/01 02:01:33;;;;;;;;;;;15.10;93.50;;;;;;5095505;28;19916;-77
2023/08/01 02:03:59;;;;;;;;;;;15.20;93.70;;;;;;5078548;28;19923;-77
2023/08/01 02:06:24;;;;;;;;;;;15.10;93.70;;;;;;5061751;28;19961;-77
2023/08/01 02:08:50;;;;;;;;;;;15.10;93.70;;;;;;5078405;28;19916;-77
2023/08/01 02:11:16;;;;;;;;;;;15.20;93.80;;;;;;5095757;28;20002;-77
2023/08/01 02:13:41;;;;;;;;;;;15.20;93.90;;;;;;5061856;28;19916;-77
2023/08/01 02:16:07;;;;;;;;;;;15.20;93.80;;;;;;5095022;28;20276;-78
2023/08/01 02:18:32;;;;;;;;;;;15.20;93.90;;;;;;5078223;28;20368;-78
2023/08/01 02:20:58;;;;;;;;;;;15.30;93.90;;;;;;5095207;28;19966;-79
2023/08/01 02:23:23;;;;;;;;;;;15.30;93.80;;;;;;5078031;28;19916;-79
2023/08/01 02:25:49;;;;;;;;;;;15.40;93.70;;;;;;5078111;28;19919;-79
2023/08/01 02:28:15;;;;;;;;;;;15.50;93.80;;;;;;5095387;28;19915;-78
2023/08/01 02:30:41;;;;;;;;;;;15.50;93.70;;;;;;5078573;28;19916;-79
2023/08/01 02:33:07;;;;;;;;;;;15.50;93.70;;;;;;5077866;28;19923;-78
2023/08/01 02:35:33;;;;;;;;;;;15.50;93.90;;;;;;5094761;28;19915;-77
2023/08/01 02:37:58;;;;;;;;;;;15.60;93.90;;;;;;5094144;28;20364;-78
2023/08/01 02:40:24;;;;;;;;;;;15.60;93.90;;;;;;5061040;28;20360;-78
2023/08/01 02:42:50;;;;;;;;;;;15.60;93.90;;;;;;5094561;28;19920;-78
2023/08/01 02:45:15;;;;;;;;;;;15.60;94.10;;;;;;5095213;28;19920;-78
2023/08/01 02:47:41;;;;;;;;;;;15.70;94.10;;;;;;5094699;28;19916;-77
2023/08/01 02:50:07;;;;;;;;;;;15.70;94.20;;;;;;5094171;28;20391;-77
2023/08/01 02:52:32;;;;;;;;;;;15.60;94.20;;;;;;5094419;28;19965;-78
2023/08/01 02:54:58;;;;;;;;;;;15.70;94.30;;;;;;5077204;28;20552;-78
2023/08/01 02:57:23;;;;;;;;;;;15.70;94.40;;;;;;5077152;28;19969;-78
2023/08/01 02:59:49;;;;;;;;;;;15.60;94.30;;;;;;5077297;28;19926;-77
2023/08/01 03:02:15;;;;;;;;;;;15.60;94.40;;;;;;5077295;28;19923;-77
2023/08/01 03:04:40;;;;;;;;;;;15.70;94.40;;;;;;5094253;28;19959;-78
2023/08/01 03:07:06;;;;;;;;;;;15.60;94.20;;;;;;5077488;28;19923;-78
2023/08/01 03:09:34;;;;;;;;;;;15.60;94.20;;;;;;5060431;28;20291;-77
2023/08/01 03:12:00;;;;;;;;;;;15.50;94.30;;;;;;5060616;28;20445;-77
2023/08/01 03:14:25;;;;;;;;;;;15.50;94.20;;;;;;5093999;28;19970;-77
2023/08/01 03:16:51;;;;;;;;;;;15.50;94.20;;;;;;5093618;28;19946;-78
2023/08/01 03:19:16;;;;;;;;;;;15.50;94.00;;;;;;5076940;28;19920;-77
2023/08/01 03:21:42;;;;;;;;;;;15.50;94.00;;;;;;5094143;28;19923;-77
2023/08/01 03:24:08;;;;;;;;;;;15.50;93.80;;;;;;5093640;28;20493;-78
2023/08/01 03:26:34;;;;;;;;;;;15.50;93.90;;;;;;5094151;28;19945;-77
2023/08/01 03:29:00;;;;;;;;;;;15.50;93.90;;;;;;5077004;28;19916;-77
2023/08/01 03:31:25;;;;;;;;;;;15.50;93.80;;;;;;5094112;28;19919;-78
2023/08/01 03:33:51;;;;;;;;;;;15.50;93.70;;;;;;5076657;28;19916;-77
2023/08/01 03:36:17;;;;;;;;;;;15.50;93.80;;;;;;5076887;28;19934;-77
2023/08/01 03:38:43;;;;;;;;;;;15.40;94.00;;;;;;5076957;28;19915;-77
2023/08/01 03:41:09;;;;;;;;;;;15.50;94.10;;;;;;5093438;28;20377;-77
2023/08/01 03:43:34;;;;;;;;;;;15.50;93.90;;;;;;5076268;28;19965;-77
2023/08/01 03:46:00;;;;;;;;;;;15.50;94.00;;;;;;5076869;28;19916;-78
2023/08/01 03:48:26;;;;;;;;;;;15.40;94.10;;;;;;5093831;28;19927;-77
2023/08/01 03:50:51;;;;;;;;;;;15.50;94.00;;;;;;5076334;28;20329;-77
2023/08/01 03:53:17;;;;;;;;;;;15.40;94.00;;;;;;5059378;28;19916;-77
2023/08/01 03:55:43;;;;;;;;;;;15.40;94.00;;;;;;5075922;28;19926;-77
2023/08/01 03:58:09;;;;;;;;;;;15.40;94.20;;;;;;5092845;28;20268;-77
2023/08/01 04:00:35;;;;;;;;;;;15.40;94.10;;;;;;5093104;28;19916;-78
2023/08/01 04:03:01;;;;;;;;;;;15.40;94.10;;;;;;5093185;28;20065;-77
2023/08/01 04:05:29;;;;;;;;;;;15.30;94.20;;;;;;5076372;28;19927;-77
2023/08/01 04:07:55;;;;;;;;;;;15.40;94.20;;;;;;5093337;28;19963;-77
2023/08/01 04:10:21;;;;;;;;;;;15.30;94.30;;;;;;5093310;28;19967;-77
2023/08/01 04:12:47;;;;;;;;;;;15.40;94.40;;;;;;5093066;28;19966;-77
2023/08/01 04:15:13;;;;;;;;;;;15.40;94.30;;;;;;5093184;28;19966;-77
2023/08/01 04:17:39;;;;;;;;;;;15.40;94.30;;;;;;5092609;28;19920;-77
2023/08/01 04:20:05;;;;;;;;;;;15.40;94.30;;;;;;5075988;28;19962;-78
2023/08/01 04:22:31;;;;;;;;;;;15.50;94.30;;;;;;5059223;28;19922;-78
2023/08/01 04:24:56;;;;;;;;;;;15.40;94.20;;;;;;5092776;28;19916;-77
2023/08/01 04:27:22;;;;;;;;;;;15.50;94.40;;;;;;5092839;28;19916;-78
2023/08/01 04:29:48;;;;;;;;;;;15.50;94.40;;;;;;5092884;28;19916;-78
2023/08/01 04:32:15;;;;;;;;;;;15.50;94.40;;;;;;5093036;28;19939;-77
2023/08/01 04:34:43;;;;;;;;;;;15.50;94.50;;;;;;5076228;28;19969;-78
2023/08/01 04:37:10;;;;;;;;;;;15.60;94.50;;;;;;5092687;28;20376;-79
2023/08/01 04:39:35;;;;;;;;;;;15.60;94.60;;;;;;5059449;28;19916;-78
2023/08/01 04:42:01;;;;;;;;;;;15.50;94.70;;;;;;5092656;28;19922;-78
2023/08/01 04:44:27;;;;;;;;;;;15.50;94.90;;;;;;5092515;28;19938;-78
2023/08/01 04:46:53;;;;;;;;;;;15.50;95.30;;;;;;5075977;28;19916;-78
2023/08/01 04:49:18;;;;;;;;;;;15.50;95.20;;;;;;5058889;28;19922;-78
2023/08/01 04:51:44;;;;;;;;;;;15.50;95.20;;;;;;5076039;28;19919;-78
2023/08/01 04:54:10;;;;;;;;;;;15.50;95.30;;;;;;5092796;28;20272;-77
2023/08/01 04:56:35;;;;;;;;;;;15.50;95.40;;;;;;5075631;28;19924;-78
2023/08/01 04:59:02;;;;;;;;;;;15.50;95.70;;;;;;5092472;28;19916;-78
2023/08/01 05:01:27;;;;;;;;;;;15.50;95.80;;;;;;5062780;28;19966;-78
2023/08/01 05:03:53;;;;;;;;;;;15.50;95.70;;;;;;5096657;28;20322;-78
2023/08/01 05:06:18;;;;;;;;;;;15.50;96.00;;;;;;5096670;28;19923;-78
2023/08/01 05:08:44;;;;;;;;;;;15.60;96.00;;;;;;5079700;28;19923;-78
2023/08/01 05:11:09;;;;;;;;;;;15.60;96.20;;;;;;5096546;28;19916;-77
2023/08/01 05:13:35;;;;;;;;;;;15.60;96.10;;;;;;5079757;28;20057;-77
2023/08/01 05:16:02;;;;;;;;;;;15.70;95.90;;;;;;5079292;28;20311;-77
2023/08/01 05:18:28;;;;;;;;;;;15.70;95.70;;;;;;5096761;28;19919;-79
2023/08/01 05:20:53;;;;;;;;;;;15.70;95.30;;;;;;5079685;28;19923;-78
2023/08/01 05:23:19;;;;;;;;;;;15.70;95.30;;;;;;5079510;28;19916;-78
2023/08/01 05:25:45;;;;;;;;;;;15.80;95.00;;;;;;5096293;28;20364;-77
2023/08/01 05:28:11;;;;;;;;;;;15.80;94.90;;;;;;5062395;28;19916;-78
2023/08/01 05:30:37;;;;;;;;;;;15.70;94.70;;;;;;5062329;28;20018;-78
2023/08/01 05:33:03;;;;;;;;;;;15.70;94.70;;;;;;5096036;28;19990;-78
2023/08/01 05:35:28;;;;;;;;;;;15.70;94.60;;;;;;5095826;28;19962;-78
2023/08/01 05:37:54;;;;;;;;;;;15.60;94.40;;;;;;5062661;28;19969;-78
2023/08/01 05:40:19;;;;;;;;;;;15.50;94.30;;;;;;5079126;28;19916;-78
2023/08/01 05:42:45;;;;;;;;;;;15.50;94.20;;;;;;5078860;28;19968;-79
2023/08/01 05:45:11;;;;;;;;;;;15.50;94.20;;;;;;5095818;28;19916;-78
2023/08/01 05:47:37;;;;;;;;;;;15.50;94.20;;;;;;5079244;28;19916;-78
2023/08/01 05:50:03;;;;;;;;;;;15.50;94.20;;;;;;5078981;28;19923;-78
2023/08/01 05:52:30;;;;;;;;;;;15.40;94.00;;;;;;5095559;28;20054;-79
2023/08/01 05:54:55;;;;;;;;;;;15.40;94.20;;;;;;5078869;28;19939;-78
2023/08/01 05:57:21;;;;;;;;;;;15.40;94.20;;;;;;5078716;28;20368;-77
2023/08/01 05:59:46;;;;;;;;;;;15.40;94.40;;;;;;5095528;28;19920;-78
2023/08/01 06:02:12;;;;;;;;;;;15.40;94.60;;;;;;5078691;28;19965;-77
2023/08/01 06:04:38;;;;;;;;;;;15.40;94.60;;;;;;5095494;28;19916;-77
2023/08/01 06:07:04;;;;;;;;;;;15.50;94.80;;;;;;5095324;28;20445;-78
2023/08/01 06:09:30;;;;;;;;;;;15.50;94.80;;;;;;5079114;28;19916;-78
2023/08/01 06:11:55;;;;;;;;;;;15.70;94.70;;;;;;5094063;28;19919;-78
2023/08/01 06:14:21;;;;;;;;;;;15.70;94.80;;;;;;5078478;28;19916;-77
2023/08/01 06:16:47;;;;;;;;;;;15.70;94.80;;;;;;5094856;28;19920;-79
2023/08/01 06:19:12;;;;;;;;;;;15.80;94.70;;;;;;5095326;28;19920;-78
2023/08/01 06:21:38;;;;;;;;;;;15.70;94.80;;;;;;5078152;28;20329;-78
2023/08/01 06:24:03;;;;;;;;;;;15.70;94.90;;;;;;5095232;28;19939;-78
2023/08/01 06:26:29;;;;;;;;;;;15.70;94.90;;;;;;5095490;28;20061;-78
2023/08/01 06:28:55;;;;;;;;;;;15.70;94.90;;;;;;5078156;28;19951;-78
2023/08/01 06:31:21;;;;;;;;;;;15.60;95.10;;;;;;5077989;28;19999;-79
2023/08/01 06:33:46;;;;;;;;;;;15.60;95.20;;;;;;5078017;28;19920;-78
2023/08/01 06:36:13;;;;;;;;;;;15.70;95.30;;;;;;5095176;28;19926;-78
2023/08/01 06:38:38;;;;;;;;;;;15.70;95.20;;;;;;5061613;28;20257;-78
2023/08/01 06:41:04;;;;;;;;;;;15.70;95.40;;;;;;5078007;28;19915;-78
2023/08/01 06:43:29;;;;;;;;;;;15.70;95.20;;;;;;5094951;28;19920;-78
2023/08/01 06:45:55;;;;;;;;;;;15.70;95.20;;;;;;5095046;28;20387;-78
2023/08/01 06:48:21;;;;;;;;;;;15.80;95.10;;;;;;5094603;28;20430;-77
2023/08/01 06:50:46;;;;;;;;;;;15.80;95.10;;;;;;5094526;28;19920;-78
2023/08/01 06:53:12;;;;;;;;;;;15.80;94.90;;;;;;5077869;28;19963;-77
2023/08/01 06:55:37;;;;;;;;;;;15.80;94.90;;;;;;5094812;28;20383;-77
2023/08/01 06:58:03;;;;;;;;;;;15.70;95.10;;;;;;5077436;28;20380;-77
2023/08/01 07:00:28;;;;;;;;;;;15.80;94.90;;;;;;5094239;28;19943;-78
2023/08/01 07:02:54;;;;;;;;;;;15.80;94.90;;;;;;5094529;28;19920;-79
2023/08/01 07:05:20;;;;;;;;;;;15.90;94.50;;;;;;5094119;28;20354;-78
2023/08/01 07:07:45;;;;;;;;;;;15.90;94.50;;;;;;5077782;28;20044;-78
2023/08/01 07:10:11;;;;;;;;;;;16.00;94.70;;;;;;5077989;28;20053;-78
2023/08/01 07:12:36;;;;;;;;;;;16.00;94.80;;;;;;5094238;28;19923;-78
2023/08/01 07:15:02;;;;;;;;;;;16.10;94.80;;;;;;5077224;28;19916;-79
2023/08/01 07:17:28;;;;;;;;;;;16.10;94.80;;;;;;5060405;28;20020;-78
2023/08/01 07:19:54;;;;;;;;;;;16.20;94.80;;;;;;5094266;28;20390;-79
2023/08/01 07:22:20;;;;;;;;;;;16.10;94.60;;;;;;5093985;28;19923;-79
2023/08/01 07:24:45;;;;;;;;;;;16.10;94.90;;;;;;5077111;28;19920;-78
2023/08/01 07:27:12;;;;;;;;;;;16.10;94.90;;;;;;5094014;28;19916;-79
2023/08/01 07:29:37;;;;;;;;;;;16.10;95.00;;;;;;5077117;28;19961;-80
2023/08/01 07:32:03;;;;;;;;;;;16.00;94.70;;;;;;5077285;28;19916;-78
2023/08/01 07:34:29;;;;;;;;;;;16.00;94.60;;;;;;5076468;28;19915;-79
2023/08/01 07:36:54;;;;;;;;;;;16.00;94.90;;;;;;5076542;28;19927;-80
2023/08/01 07:39:20;;;;;;;;;;;15.90;94.80;;;;;;5077664;28;19923;-80
2023/08/01 07:41:46;;;;;;;;;;;15.90;95.00;;;;;;5060862;28;19920;-79
2023/08/01 07:44:11;;;;;;;;;;;15.80;95.00;;;;;;5093132;28;20011;-79
2023/08/01 07:46:37;;;;;;;;;;;15.80;94.80;;;;;;5076969;28;20006;-80
2023/08/01 07:49:02;;;;;;;;;;;15.80;94.90;;;;;;5076406;28;19916;-79
2023/08/01 07:51:29;;;;;;;;;;;15.90;94.70;;;;;;5077187;28;19955;-80
2023/08/01 07:53:55;;;;;;;;;;;15.90;94.70;;;;;;5093297;28;20284;-79
2023/08/01 07:56:20;;;;;;;;;;;15.90;94.80;;;;;;5059651;28;19920;-79
2023/08/01 07:58:46;;;;;;;;;;;15.90;95.00;;;;;;5076185;28;20428;-79
2023/08/01 08:01:12;;;;;;;;;;;16.00;95.30;;;;;;5059787;28;19923;-78
2023/08/01 08:03:37;;;;;;;;;;;16.00;95.30;;;;;;5076143;28;19955;-79
2023/08/01 08:06:04;;;;;;;;;;;16.20;95.30;;;;;;5076159;28;19995;-79
2023/08/01 08:08:30;;;;;;;;;;;16.30;95.30;;;;;;5059453;28;20001;-78
2023/08/01 08:10:55;;;;;;;;;;;16.30;95.30;;;;;;5092856;28;19916;-79
2023/08/01 08:13:21;;;;;;;;;;;16.40;95.20;;;;;;5092945;28;19922;-78
2023/08/01 08:15:46;;;;;;;;;;;16.40;94.70;;;;;;5092879;28;20360;-78
2023/08/01 08:18:12;;;;;;;;;;;16.50;94.60;;;;;;5092525;28;19924;-78
2023/08/01 08:20:42;;;;;;;;;;;16.60;94.70;;;;;;5075845;28;19923;-78
2023/08/01 08:23:08;;;;;;;;;;;16.60;94.50;;;;;;5092715;28;19916;-78
2023/08/01 08:25:34;;;;;;;;;;;16.70;94.20;;;;;;5075683;28;19915;-78
2023/08/01 08:27:59;;;;;;;;;;;16.80;93.90;;;;;;5092587;28;19965;-77
2023/08/01 08:30:25;;;;;;;;;;;16.90;93.90;;;;;;5075710;28;19961;-77
2023/08/01 08:32:50;;;;;;;;;;;17.10;93.80;;;;;;5076025;28;19916;-78
2023/08/01 08:35:16;;;;;;;;;;;17.20;93.60;;;;;;5074884;28;19947;-78
2023/08/01 08:37:41;;;;;;;;;;;17.30;93.20;;;;;;5092373;28;19920;-78
2023/08/01 08:40:08;;;;;;;;;;;17.30;93.20;;;;;;5075723;28;19916;-79
2023/08/01 08:42:34;;;;;;;;;;;17.40;92.20;;;;;;5092302;28;19916;-78
2023/08/01 08:45:01;;;;;;;;;;;17.40;91.00;;;;;;5075780;28;20288;-79
2023/08/01 08:47:27;;;;;;;;;;;17.50;88.90;;;;;;5092289;28;19962;-79
2023/08/01 08:49:54;;;;;;;;;;;17.60;88.80;;;;;;5075581;28;19923;-77
2023/08/01 08:52:21;;;;;;;;;;;17.70;88.00;;;;;;5093039;28;20261;-77
2023/08/01 08:54:47;;;;;;;;;;;17.60;88.10;;;;;;5092050;28;19919;-78
2023/08/01 08:57:12;;;;;;;;;;;17.60;88.20;;;;;;5092135;28;20291;-77
2023/08/01 08:59:38;;;;;;;;;;;17.60;88.60;;;;;;5058834;28;19938;-77
2023/08/01 09:02:04;;;;;;;;;;;17.80;88.40;;;;;;5075786;28;20027;-77
2023/08/01 09:04:31;;;;;;;;;;;17.90;88.60;;;;;;5075301;28;20384;-77
2023/08/01 09:07:00;;;;;;;;;;;18.00;88.10;;;;;;5075439;28;19926;-77
2023/08/01 09:09:28;;;;;;;;;;;18.00;88.40;;;;;;5092079;28;20046;-77
2023/08/01 09:11:57;;;;;;;;;;;18.10;88.30;;;;;;5075173;28;20371;-77
2023/08/01 09:14:23;;;;;;;;;;;18.10;87.00;;;;;;5092314;28;19981;-77
2023/08/01 09:16:49;;;;;;;;;;;18.10;86.50;;;;;;5091815;28;20364;-77
2023/08/01 09:19:18;;;;;;;;;;;17.90;87.50;;;;;;5075163;28;20328;-76
2023/08/01 09:21:44;;;;;;;;;;;17.90;87.70;;;;;;5092162;28;19915;-76
2023/08/01 09:24:13;;;;;;;;;;;18.00;88.30;;;;;;5092020;28;19924;-77
2023/08/01 09:26:40;;;;;;;;;;;17.90;88.80;;;;;;5058665;28;20302;-77
2023/08/01 09:29:06;;;;;;;;;;;18.00;88.60;;;;;;5075117;28;19915;-77
2023/08/01 09:31:37;;;;;;;;;;;18.10;87.80;;;;;;5091993;28;19916;-76
2023/08/01 09:34:07;;;;;;;;;;;18.20;87.90;;;;;;5074900;28;19959;-76
2023/08/01 09:36:33;;;;;;;;;;;18.20;87.30;;;;;;5091757;28;20016;-76
2023/08/01 09:39:03;;;;;;;;;;;18.20;86.70;;;;;;5091844;28;19916;-76
2023/08/01 09:41:29;;;;;;;;;;;18.30;86.70;;;;;;5092113;28;19916;-76
2023/08/01 09:43:55;;;;;;;;;;;18.40;85.90;;;;;;5074708;28;19915;-76
2023/08/01 09:46:21;;;;;;;;;;;18.50;85.20;;;;;;5093169;28;20290;-76
2023/08/01 09:48:46;;;;;;;;;;;18.60;85.20;;;;;;5095386;28;19926;-76
2023/08/01 09:51:13;;;;;;;;;;;18.70;84.30;;;;;;5078498;28;19916;-75
2023/08/01 09:53:52;;;;;;;;;;;18.80;83.30;;;;;;5078714;28;19916;-75
2023/08/01 09:56:21;;;;;;;;;;;18.90;83.30;;;;;;5095475;28;20042;-76
2023/08/01 09:58:47;;;;;;;;;;;18.80;82.40;;;;;;5078202;28;19950;-76
2023/08/01 10:01:18;;;;;;;;;;;18.70;82.40;;;;;;5078694;28;19923;-76
2023/08/01 10:03:46;;;;;;;;;;;18.70;82.60;;;;;;5078488;28;19916;-76
2023/08/01 10:06:14;;;;;;;;;;;18.60;82.50;;;;;;5095049;28;19916;-76
2023/08/01 10:08:40;;;;;;;;;;;18.90;82.00;;;;;;5095079;28;20431;-76
2023/08/01 10:11:06;;;;;;;;;;;19.10;81.00;;;;;;5078125;28;19934;-75
2023/08/01 10:13:32;;;;;;;;;;;19.30;80.70;;;;;;5078022;28;19916;-76
2023/08/01 10:15:58;;;;;;;;;;;19.40;80.30;;;;;;5094938;28;19969;-76
2023/08/01 10:18:24;;;;;;;;;;;19.40;80.70;;;;;;5094516;28;20288;-76
2023/08/01 10:20:49;;;;;;;;;;;19.60;78.80;;;;;;5077984;28;19920;-75
2023/08/01 10:23:15;;;;;;;;;;;19.80;78.20;;;;;;5094671;28;19916;-77
2023/08/01 10:25:41;;;;;;;;;;;19.90;78.40;;;;;;5061258;28;19916;-75
2023/08/01 10:28:07;;;;;;;;;;;19.90;78.50;;;;;;5094628;28;20006;-75
2023/08/01 10:30:32;;;;;;;;;;;20.00;78.80;;;;;;5095178;28;19916;-77
2023/08/01 10:32:59;;;;;;;;;;;20.00;78.10;;;;;;5078122;28;20287;-76
2023/08/01 10:35:35;;;;;;;;;;;20.00;78.30;;;;;;5094961;28;20371;-77
2023/08/01 10:38:09;;;;;;;;;;;19.90;77.60;;;;;;5095018;28;19919;-78
2023/08/01 10:40:39;;;;;;;;;;;20.00;77.30;;;;;;5094754;28;19923;-76
2023/08/01 10:43:05;;;;;;;;;;;20.00;76.10;;;;;;5095010;28;20307;-76
2023/08/01 10:45:30;;;;;;;;;;;20.00;75.80;;;;;;5094591;28;19942;-75
2023/08/01 10:48:10;;;;;;;;;;;20.00;75.80;;;;;;5095259;28;19919;-76
2023/08/01 10:50:35;;;;;;;;;;;19.90;76.80;;;;;;5094351;28;19920;-78
2023/08/01 10:53:02;;;;;;;;;;;19.90;77.10;;;;;;5094912;28;19916;-76
2023/08/01 10:55:37;;;;;;;;;;;19.90;76.90;;;;;;5094888;28;19969;-75
2023/08/01 10:58:04;;;;;;;;;;;19.90;76.50;;;;;;5076861;28;19973;-75
2023/08/01 11:00:29;;;;;;;;;;;19.90;77.10;;;;;;5077762;28;19916;-76
2023/08/01 11:02:55;;;;;;;;;;;19.70;75.30;;;;;;5094237;28;19923;-77
2023/08/01 11:05:23;;;;;;;;;;;19.60;76.30;;;;;;5094335;28;19920;-76
2023/08/01 11:07:56;;;;;;;;;;;19.60;76.80;;;;;;5093993;28;19969;-77
2023/08/01 11:10:22;;;;;;;;;;;19.60;78.00;;;;;;5091947;28;19916;-76
2023/08/01 11:12:47;;;;;;;;;;;19.50;77.60;;;;;;5060711;28;19916;-77
2023/08/01 11:15:14;;;;;;;;;;;19.30;78.80;;;;;;5093711;28;20001;-76
2023/08/01 11:17:40;;;;;;;;;;;19.20;80.10;;;;;;5060253;28;19966;-77
2023/08/01 11:20:08;;;;;;;;;;;19.30;81.30;;;;;;5093898;28;19946;-77
2023/08/01 11:22:34;;;;;;;;;;;19.40;81.00;;;;;;5077090;28;19916;-77
2023/08/01 11:25:00;;;;;;;;;;;19.40;80.90;;;;;;5093692;28;19916;-77
2023/08/01 11:27:26;;;;;;;;;;;19.40;80.60;;;;;;5076866;28;19916;-77
2023/08/01 11:29:52;;;;;;;;;;;19.30;80.00;;;;;;5076996;28;19966;-78
2023/08/01 11:32:20;;;;;;;;;;;19.20;79.40;;;;;;5093588;28;19916;-76
2023/08/01 11:34:46;;;;;;;;;;;19.00;78.70;;;;;;5093404;28;19916;-76
2023/08/01 11:37:12;;;;;;;;;;;19.00;78.90;;;;;;5093434;28;20011;-76
2023/08/01 11:39:38;;;;;;;;;;;19.30;78.90;;;;;;5093726;28;20283;-77
2023/08/01 11:42:04;;;;;;;;;;;19.50;77.90;;;;;;5076499;28;19916;-77
2023/08/01 11:44:29;;;;;;;;;;;19.50;77.40;;;;;;5076715;28;19942;-76
2023/08/01 11:46:55;;;;;;;;;;;19.70;75.90;;;;;;5059735;28;19968;-77
2023/08/01 11:49:21;;;;;;;;;;;20.00;73.60;;;;;;5093694;28;19916;-76
2023/08/01 11:51:47;;;;;;;;;;;20.20;73.90;;;;;;5093395;28;20469;-76
2023/08/01 11:54:13;;;;;;;;;;;20.50;74.30;;;;;;5093640;28;20001;-77
2023/08/01 11:56:40;;;;;;;;;;;20.70;74.30;;;;;;5093512;28;20287;-77
2023/08/01 11:59:10;;;;;;;;;;;20.90;73.20;;;;;;5093260;28;19961;-76
2023/08/01 12:01:43;;;;;;;;;;;20.90;72.40;;;;;;5059775;28;19923;-77
2023/08/01 12:04:09;;;;;;;;;;;20.90;72.80;;;;;;5093104;28;19915;-76
2023/08/01 12:06:34;;;;;;;;;;;21.00;72.90;;;;;;5093062;28;19923;-76
2023/08/01 12:09:13;;;;;;;;;;;20.90;72.40;;;;;;5092652;28;19923;-76
2023/08/01 12:11:39;;;;;;;;;;;21.00;71.50;;;;;;5089962;28;19923;-77
2023/08/01 12:14:13;;;;;;;;;;;20.90;71.60;;;;;;5093111;28;20352;-76
2023/08/01 12:16:45;;;;;;;;;;;20.80;72.80;;;;;;5092967;28;19927;-75
2023/08/01 12:19:16;;;;;;;;;;;20.50;73.30;;;;;;5092848;28;20012;-77
2023/08/01 12:21:42;;;;;;;;;;;20.30;75.00;;;;;;5093212;28;20106;-77
2023/08/01 12:24:07;;;;;;;;;;;20.10;76.10;;;;;;5075909;28;20427;-77
2023/08/01 12:26:33;;;;;;;;;;;20.00;77.10;;;;;;5092864;28;20325;-76
2023/08/01 12:28:58;;;;;;;;;;;19.90;77.60;;;;;;5083590;28;20006;-77
2023/08/01 12:31:24;;;;;;;;;;;19.80;76.00;;;;;;5075688;28;19916;-77
2023/08/01 12:33:50;;;;;;;;;;;19.50;77.60;;;;;;5092415;28;19966;-76
2023/08/01 12:36:16;;;;;;;;;;;19.40;79.40;;;;;;5076068;28;19916;-75
2023/08/01 12:38:41;;;;;;;;;;;19.30;80.80;;;;;;5092617;28;19970;-77
2023/08/01 12:41:07;;;;;;;;;;;19.30;81.90;;;;;;5092672;28;19962;-77
2023/08/01 12:43:33;;;;;;;;;;;19.30;81.90;;;;;;5092904;28;19959;-77
2023/08/01 12:45:59;;;;;;;;;;;19.40;81.70;;;;;;5091970;28;19916;-76
2023/08/01 12:48:28;;;;;;;;;;;19.40;79.10;;;;;;5076076;28;19923;-76
2023/08/01 12:50:54;;;;;;;;;;;19.50;79.00;;;;;;5092347;28;19915;-76
2023/08/01 12:53:20;;;;;;;;;;;19.90;79.10;;;;;;5092374;28;20007;-76
2023/08/01 12:55:46;;;;;;;;;;;20.10;79.20;;;;;;5092458;28;20368;-76
2023/08/01 12:58:12;;;;;;;;;;;20.20;78.10;;;;;;5092458;28;19920;-76
2023/08/01 13:00:38;;;;;;;;;;;20.00;79.30;;;;;;5092465;28;19923;-76
2023/08/01 13:03:04;;;;;;;;;;;20.00;80.10;;;;;;5076922;28;20276;-79
2023/08/01 13:05:30;;;;;;;;;;;20.20;79.60;;;;;;5072107;28;19938;-78
2023/08/01 13:07:55;;;;;;;;;;;20.40;77.20;;;;;;5055666;28;20007;-76
2023/08/01 13:10:21;;;;;;;;;;;20.40;76.00;;;;;;5072073;28;20375;-76
2023/08/01 13:12:47;;;;;;;;;;;20.50;76.60;;;;;;5072418;28;19916;-76
2023/08/01 13:15:12;;;;;;;;;;;20.40;76.00;;;;;;5055294;28;19951;-77
2023/08/01 13:17:38;;;;;;;;;;;20.20;76.00;;;;;;5071781;28;19920;-77
2023/08/01 13:20:04;;;;;;;;;;;20.10;77.30;;;;;;5055498;28;19916;-76
2023/08/01 13:22:30;;;;;;;;;;;19.90;76.50;;;;;;5058897;28;20285;-76
2023/08/01 13:24:55;;;;;;;;;;;19.90;76.90;;;;;;5059208;28;19924;-76
2023/08/01 13:27:21;;;;;;;;;;;20.00;77.40;;;;;;5059221;28;20281;-76
2023/08/01 13:29:50;;;;;;;;;;;20.00;76.00;;;;;;5075669;28;19966;-76
2023/08/01 13:32:15;;;;;;;;;;;20.00;76.70;;;;;;5075691;28;19916;-77
2023/08/01 13:34:41;;;;;;;;;;;19.90;76.60;;;;;;5059070;28;19965;-76
2023/08/01 13:37:06;;;;;;;;;;;19.80;77.80;;;;;;5075505;28;19928;-76
2023/08/01 13:39:32;;;;;;;;;;;19.70;78.70;;;;;;5078757;28;19915;-78
2023/08/01 13:41:57;;;;;;;;;;;19.60;79.50;;;;;;5062199;28;19931;-77
2023/08/01 13:44:23;;;;;;;;;;;19.80;80.30;;;;;;5062291;28;19964;-77
2023/08/01 13:46:49;;;;;;;;;;;19.90;79.90;;;;;;5078960;28;20006;-77
2023/08/01 13:49:14;;;;;;;;;;;20.00;78.00;;;;;;5062549;28;19923;-78
2023/08/01 13:51:40;;;;;;;;;;;19.70;79.80;;;;;;5079109;28;19916;-77
2023/08/01 13:54:05;;;;;;;;;;;19.50;81.00;;;;;;5079662;28;20408;-78
2023/08/01 13:56:31;;;;;;;;;;;19.30;81.90;;;;;;5075507;28;19943;-78
2023/08/01 13:58:56;;;;;;;;;;;19.00;83.00;;;;;;5042010;28;19956;-78
2023/08/01 14:01:22;;;;;;;;;;;18.80;83.70;;;;;;5075296;28;19917;-78
2023/08/01 14:03:48;;;;;;;;;;;18.80;84.50;;;;;;5075340;28;20344;-78
2023/08/01 14:06:14;;;;;;;;;;;18.70;84.10;;;;;;5058671;28;19917;-78
2023/08/01 14:08:40;;;;;;;;;;;18.90;84.20;;;;;;5076114;28;19970;-78
2023/08/01 14:11:07;;;;;;;;;;;19.00;84.00;;;;;;5092258;28;20249;-78